Latest Coastal Weather Observations for Point Stuart

IDD60701

Issued at 3:31 am CST Friday 6 May 2016 (issued every 10 minutes, with the page automatically refreshed every 10 minutes)

About coastal observations | Map of coastal stations | Coastal observations for NT | Marine services | Other Formats
Station Details ID: 014254 Name: POINT STUART Lat: -12.24 Lon: 131.88 Height: 1.0 m
Data from the previous 72 hours. | See also: Recent months at Point Stuart
Date/Time
CST
Temp

°C
Wind Pressure Rain
since 9am
mm
Weather Cloud Vis
km
Sea
Height
m
Swell
Dir
 
Speed
knots
Gust
knots
hPa Trend Height
m
Period
s
Dir
06/03:30am 27.9 E 8 11 1009.4 - 0.0 - - - - - - -
06/03:00am 28.0 E 8 11 1009.4 - 0.0 - - - - - - -
06/02:30am 27.8 ESE 5 7 1009.5 - 0.0 - - - - - - -
06/02:00am 28.5 ENE 9 11 1009.6 - 0.0 - - - - - - -
06/01:30am 28.7 ENE 9 12 1009.8 - 0.0 - - - - - - -
06/01:00am 28.8 ENE 8 11 1010.1 - 0.0 - - - - - - -
06/12:30am 28.9 ENE 8 11 1010.3 - 0.0 - - - - - - -
06/12:00am 28.9 ENE 7 9 1010.3 - 0.0 - - - - - - -
 
Date/Time
CST
Temp

°C
Wind Pressure Rain
since 9am
mm
Weather Cloud Vis
km
Sea
Height
m
Swell
Dir
 
Speed
knots
Gust
knots
hPa Trend Height
m
Period
s
Dir
05/11:30pm 28.9 NE 5 7 1010.3 - 0.0 - - - - - - -
05/11:00pm 29.2 NE 7 10 1010.2 - 0.0 - - - - - - -
05/10:30pm 29.4 ENE 8 12 1010.2 - 0.0 - - - - - - -
05/10:00pm 29.4 NE 8 15 1010.0 - 0.0 - - - - - - -
05/09:30pm 29.5 NE 8 13 1010.0 - 0.0 - - - - - - -
05/09:00pm 29.7 NE 8 12 1009.9 - 0.0 - - - - - - -
05/08:30pm 29.9 NE 8 11 1009.7 - 0.0 - - - - - - -
05/08:00pm 29.6 NE 6 10 1009.2 - 0.0 - - - - - - -
05/07:30pm 29.4 NNE 5 8 1008.9 - 0.0 - - - - - - -
05/07:00pm 29.7 N 4 7 1008.6 - 0.0 - - - - - - -
05/06:30pm 30.3 NNE 4 6 1008.4 - 0.0 - - - - - - -
05/06:00pm 31.2 NNE 3 6 1008.4 - 0.0 - - - - - - -
05/05:30pm 31.8 N 5 9 1008.3 - 0.0 - - - - - - -
05/05:00pm 32.3 NNE 7 11 1008.4 - 0.0 - - - - - - -
05/04:30pm 32.8 NNE 7 11 1008.3 - 0.0 - - - - - - -
05/04:00pm 33.0 NNE 6 11 1008.4 - 0.0 - - - - - - -
05/03:30pm 32.9 NNE 6 10 1008.4 - 0.0 - - - - - - -
05/03:00pm 33.2 NE 8 13 1008.6 - 0.0 - - - - - - -
05/02:30pm 32.9 NNE 8 13 1009.0 - 0.0 - - - - - - -
05/02:00pm 32.9 NNE 6 9 1009.4 - 0.0 - - - - - - -
05/01:30pm 32.8 NE 7 11 1009.8 - 0.0 - - - - - - -
05/01:00pm 32.5 NE 7 12 1010.2 - 0.0 - - - - - - -
05/12:30pm 32.5 NE 6 11 1010.6 - 0.0 - - - - - - -
05/12:00pm 32.0 ENE 7 10 1011.1 - 0.0 - - - - - - -
05/11:30am 31.3 E 8 12 1011.6 - 0.0 - - - - - - -
05/11:00am 30.8 ENE 9 13 1012.0 - 0.0 - - - - - - -
05/10:30am 30.4 E 9 14 1012.1 - 0.0 - - - - - - -
05/10:00am 30.1 E 8 12 1012.2 - 0.0 - - - - - - -
05/09:30am 29.4 ESE 9 12 1012.1 - 0.0 - - - - - - -
05/09:00am 28.5 ESE 8 10 1011.9 - 0.0 - - - - - - -
05/08:30am 27.6 ESE 7 9 1011.7 - 0.0 - - - - - - -
05/08:00am 26.4 SSE 3 5 1011.6 - 0.0 - - - - - - -
05/07:30am 25.5 CALM 0 0 1011.3 - 0.0 - - - - - - -
05/07:00am 24.9 E 3 4 1011.2 - 0.0 - - - - - - -
05/06:30am 25.0 SE 4 5 1010.8 - 0.0 - - - - - - -
05/06:00am 25.1 SE 5 7 1010.7 - 0.0 - - - - - - -
05/05:30am 25.3 SE 6 7 1010.4 - 0.0 - - - - - - -
05/05:00am 25.4 SE 6 7 1010.5 - 0.0 - - - - - - -
05/04:30am 25.7 SE 6 8 1010.3 - 0.0 - - - - - - -
05/04:00am 25.8 SE 6 7 1010.4 - 0.0 - - - - - - -
05/03:30am 25.9 SE 7 8 1010.5 - 0.0 - - - - - - -
05/03:00am 26.3 SE 5 7 1010.7 - 0.0 - - - - - - -
05/02:30am 26.7 SE 6 7 1010.8 - 0.0 - - - - - - -
05/02:00am 27.1 SE 5 7 1011.2 - 0.0 - - - - - - -
05/01:30am 28.2 ESE 5 7 1011.3 - 0.0 - - - - - - -
05/01:00am 28.8 ENE 7 9 1011.4 - 0.0 - - - - - - -
05/12:30am 28.8 NE 6 9 1011.7 - 0.0 - - - - - - -
05/12:00am 28.8 ENE 6 9 1011.8 - 0.0 - - - - - - -
 
Date/Time
CST
Temp

°C
Wind Pressure Rain
since 9am
mm
Weather Cloud Vis
km
Sea
Height
m
Swell
Dir
 
Speed
knots
Gust
knots
hPa Trend Height
m
Period
s
Dir
04/11:30pm 28.9 NE 6 9 1011.9 - 0.0 - - - - - - -
04/11:00pm 28.6 NE 3 5 1012.1 - 0.0 - - - - - - -
04/10:30pm 28.9 NNE 5 6 1012.1 - 0.0 - - - - - - -
04/10:00pm 29.0 N 3 5 1012.1 - 0.0 - - - - - - -
04/09:30pm 29.3 N 1 4 1012.1 - 0.0 - - - - - - -
04/09:00pm 29.5 N 4 5 1011.9 - 0.0 - - - - - - -
04/08:30pm 29.4 N 5 7 1011.5 - 0.0 - - - - - - -
04/08:00pm 29.7 N 5 8 1010.9 - 0.0 - - - - - - -
04/07:30pm 29.9 N 5 9 1010.5 - 0.0 - - - - - - -
04/07:00pm 30.1 N 5 7 1010.0 - 0.0 - - - - - - -
04/06:30pm 30.3 N 4 6 1009.6 - 0.0 - - - - - - -
04/06:00pm 30.9 N 4 7 1009.3 - 0.0 - - - - - - -
04/05:30pm 31.3 N 5 8 1009.0 - 0.0 - - - - - - -
04/05:00pm 31.8 N 6 9 1008.7 - 0.0 - - - - - - -
04/04:30pm 32.5 NNE 6 9 1008.7 - 0.0 - - - - - - -
04/04:00pm 32.5 NNE 7 11 1008.4 - 0.0 - - - - - - -
04/03:30pm 32.8 NNE 9 13 1008.4 - 0.0 - - - - - - -
04/03:00pm 33.1 NE 9 13 1008.6 - 0.0 - - - - - - -
04/02:30pm 32.6 NNE 11 15 1008.9 - 0.0 - - - - - - -
04/02:00pm 32.7 NE 11 16 1009.2 - 0.0 - - - - - - -
04/01:30pm 32.5 NE 11 15 1009.6 - 0.0 - - - - - - -
04/01:00pm 31.9 ENE 11 14 1010.1 - 0.0 - - - - - - -
04/12:30pm 31.8 ENE 11 15 1010.5 - 0.0 - - - - - - -
04/12:00pm 31.4 E 10 15 1011.0 - 0.0 - - - - - - -
04/11:30am 31.2 E 9 14 1011.7 - 0.0 - - - - - - -
04/11:00am 30.7 E 10 15 1012.2 - 0.0 - - - - - - -
04/10:30am 30.0 ESE 10 13 1012.5 - 0.0 - - - - - - -
04/10:00am 29.1 ESE 9 13 1012.9 - 0.0 - - - - - - -
04/09:30am 28.9 E 9 11 1012.9 - 0.0 - - - - - - -
04/09:00am 28.6 E 8 11 1012.6 - 0.0 - - - - - - -
04/08:30am 27.7 ESE 7 9 1012.3 - 0.0 - - - - - - -
04/08:00am 26.4 E 6 8 1012.1 - 0.0 - - - - - - -
04/07:30am 25.5 SE 5 6 1011.6 - 0.0 - - - - - - -
04/07:00am 25.5 SSE 5 6 1011.1 - 0.0 - - - - - - -
04/06:30am 25.6 SE 2 4 1010.8 - 0.0 - - - - - - -
04/06:00am 25.8 ESE 5 6 1010.5 - 0.0 - - - - - - -
04/05:30am 25.8 SE 5 7 1010.4 - 0.0 - - - - - - -
04/05:00am 25.8 SE 6 7 1010.3 - 0.0 - - - - - - -
04/04:30am 25.9 SE 6 7 1010.3 - 0.0 - - - - - - -
04/04:00am 26.1 S 4 5 1010.4 - 0.0 - - - - - - -
04/03:30am 26.4 SSE 5 7 1010.4 - 0.0 - - - - - - -
04/03:00am 26.6 E 3 4 1010.5 - 0.0 - - - - - - -
04/02:30am 26.7 E 4 5 1010.6 - 0.0 - - - - - - -
04/02:00am 26.7 SE 5 6 1011.0 - 0.0 - - - - - - -
04/01:30am 26.9 SE 3 4 1011.3 - 0.0 - - - - - - -
04/01:00am 27.1 ESE 4 5 1011.5 - 0.0 - - - - - - -
04/12:30am 27.3 SSE 2 4 1011.6 - 0.0 - - - - - - -
04/12:00am 27.5 SE 4 5 1011.6 - 0.0 - - - - - - -
 
Date/Time
CST
Temp

°C
Wind Pressure Rain
since 9am
mm
Weather Cloud Vis
km
Sea
Height
m
Swell
Dir
 
Speed
knots
Gust
knots
hPa Trend Height
m
Period
s
Dir
03/11:30pm 27.9 SE 4 5 1011.4 - 0.0 - - - - - - -
03/11:00pm 28.7 ESE 4 6 1011.7 - 0.0 - - - - - - -
03/10:30pm 29.1 ENE 9 12 1011.7 - 0.0 - - - - - - -
03/10:00pm 29.2 ENE 7 10 1011.8 - 0.0 - - - - - - -
03/09:30pm 29.3 ENE 8 10 1011.7 - 0.0 - - - - - - -
03/09:00pm 29.3 ENE 9 12 1011.5 - 0.0 - - - - - - -
03/08:30pm 29.2 NE 9 12 1011.1 - 0.0 - - - - - - -
03/08:00pm 28.9 NE 8 13 1010.6 - 0.0 - - - - - - -
03/07:30pm 28.9 NE 9 12 1010.2 - 0.0 - - - - - - -
03/07:00pm 28.7 NE 8 11 1010.1 - 0.0 - - - - - - -
03/06:30pm 28.8 NNE 7 10 1009.7 - 0.0 - - - - - - -
03/06:00pm 29.2 NE 7 9 1009.7 - 0.0 - - - - - - -
03/05:30pm 29.3 NE 5 7 1009.7 - 0.0 - - - - - - -
03/05:00pm 29.7 NNE 6 9 1009.4 - 0.0 - - - - - - -
03/04:30pm 29.9 NNE 6 10 1009.2 - 0.0 - - - - - - -
03/04:00pm 30.2 NE 9 13 1009.1 - 0.0 - - - - - - -
03/03:30pm 31.0 NE 10 14 1009.3 - 0.0 - - - - - - -
03/03:00pm 30.8 NE 9 15 1009.3 - 0.0 - - - - - - -
03/02:30pm 30.3 E 10 15 1009.6 - 0.0 - - - - - - -
03/02:00pm 30.2 E 10 14 1009.7 - 0.0 - - - - - - -
03/01:30pm 30.4 ENE 13 18 1009.9 - 0.0 - - - - - - -
03/01:00pm 29.6 E 17 21 1010.5 - 0.0 - - - - - - -
03/12:30pm 29.8 ENE 17 23 1011.2 - 0.0 - - - - - - -
03/12:00pm 29.9 NE 16 26 1011.5 - 0.0 - - - - - - -
03/11:57am 30.6 NE 15 26 1011.6 - 0.0 - - - - - - -
03/11:30am 30.5 ENE 13 17 1012.0 - 0.0 - - - - - - -
03/11:00am 29.9 ENE 11 13 1012.4 - 0.0 - - - - - - -
03/10:30am 29.8 ENE 10 14 1012.7 - 0.0 - - - - - - -
03/10:00am 29.2 E 10 13 1012.6 - 0.0 - - - - - - -
03/09:30am 29.0 E 10 13 1012.5 - 0.0 - - - - - - -
03/09:00am 28.1 E 9 13 1012.2 - 0.0 - - - - - - -
03/08:30am 26.9 E 9 11 1012.0 - 0.0 - - - - - - -
03/08:00am 26.2 ESE 7 11 1012.1 - 0.0 - - - - - - -
03/07:30am 24.9 SE 3 5 1011.9 - 0.0 - - - - - - -
03/07:00am 24.5 CALM 0 3 1011.7 - 0.0 - - - - - - -
03/06:30am 24.5 SE 5 7 1011.2 - 0.0 - - - - - - -
03/06:00am 24.6 SE 5 7 1010.9 - 0.0 - - - - - - -
03/05:30am 24.6 SE 5 7 1010.6 - 0.0 - - - - - - -
03/05:00am 24.6 SE 6 8 1010.5 - 0.0 - - - - - - -
03/04:30am 24.7 SSE 6 8 1010.4 - 0.0 - - - - - - -
03/04:00am 24.7 SSE 4 6 1010.5 - 0.0 - - - - - - -

Other Formats:

Comma delimited format used in spreadsheet applications
http://www.bom.gov.au/fwo/IDD60701/IDD60701.94127.axf

JavaScript Object Notation format (JSON) in row-major order
http://www.bom.gov.au/fwo/IDD60701/IDD60701.94127.json